Time;durP1;ratioP1;P1;durP2;ratioP2;P2;SDS_P1;SDS_P2;PMS_P1;PMS_P2;Temp;Humidity;BMP_temperature;BMP_pressure;BME280_temperature;BME280_humidity;BME280_pressure;Samples;Min_cycle;Max_cycle;Signal;HPM_P1;HPM_P2
2021/10/25 00:00:53;;;;;;;;;;;8.60;99.90;;;;;;1951216;71;20496;-73
2021/10/25 00:03:20;;;;;;;;;;;8.50;99.90;;;;;;1951422;71;20126;-72
2021/10/25 00:05:47;;;;;;;;;;;8.40;99.90;;;;;;1953207;71;20167;-72
2021/10/25 00:08:14;;;;;;;;;;;8.40;99.90;;;;;;1949958;71;20575;-72
2021/10/25 00:10:42;;;;;;;;;;;8.50;99.90;;;;;;1949292;71;20470;-72
2021/10/25 00:13:08;;;;;;;;;;;8.60;99.90;;;;;;1953142;71;20563;-71
2021/10/25 00:15:36;;;;;;;;;;;8.60;99.90;;;;;;1946792;71;20204;-73
2021/10/25 00:18:04;;;;;;;;;;;8.60;99.90;;;;;;1947239;71;20171;-73
2021/10/25 00:20:31;;;;;;;;;;;8.60;99.90;;;;;;1943497;71;20159;-72
2021/10/25 00:22:58;;;;;;;;;;;8.60;99.90;;;;;;1951379;71;20225;-72
2021/10/25 00:25:24;;;;;;;;;;;8.60;99.90;;;;;;1944474;71;20138;-71
2021/10/25 00:27:51;;;;;;;;;;;8.60;99.90;;;;;;1950057;71;20195;-72
2021/10/25 00:30:18;;;;;;;;;;;8.60;99.90;;;;;;1945682;71;20413;-71
2021/10/25 00:32:45;;;;;;;;;;;8.60;99.90;;;;;;1949539;71;20246;-71
2021/10/25 00:35:12;;;;;;;;;;;8.60;99.90;;;;;;1946508;71;20224;-71
2021/10/25 00:37:38;;;;;;;;;;;8.50;99.90;;;;;;1950104;71;21111;-72
2021/10/25 00:40:06;;;;;;;;;;;8.60;99.90;;;;;;1951217;71;20230;-72
2021/10/25 00:42:33;;;;;;;;;;;8.60;99.90;;;;;;1949442;71;20220;-72
2021/10/25 00:45:00;;;;;;;;;;;8.60;99.90;;;;;;1952347;71;20177;-73
2021/10/25 00:47:27;;;;;;;;;;;8.60;99.90;;;;;;1953097;71;20213;-71
2021/10/25 00:49:54;;;;;;;;;;;8.50;99.90;;;;;;1949706;71;20169;-72
2021/10/25 00:52:21;;;;;;;;;;;8.60;99.90;;;;;;1949386;71;20117;-73
2021/10/25 00:54:47;;;;;;;;;;;8.50;99.90;;;;;;1952867;71;20214;-72
2021/10/25 00:57:14;;;;;;;;;;;8.60;99.90;;;;;;1943835;71;20156;-72
2021/10/25 00:59:44;;;;;;;;;;;8.60;99.90;;;;;;1942555;71;20210;-72
2021/10/25 01:02:11;;;;;;;;;;;8.60;99.90;;;;;;1944064;71;20190;-72
2021/10/25 01:04:37;;;;;;;;;;;8.50;99.90;;;;;;1947480;71;20762;-72
2021/10/25 01:07:04;;;;;;;;;;;8.50;99.90;;;;;;1945185;71;20179;-73
2021/10/25 01:09:31;;;;;;;;;;;8.30;99.90;;;;;;1948032;71;20179;-73
2021/10/25 01:11:58;;;;;;;;;;;8.40;99.90;;;;;;1946085;71;20376;-73
2021/10/25 01:14:25;;;;;;;;;;;8.40;99.90;;;;;;1945245;71;20124;-72
2021/10/25 01:16:52;;;;;;;;;;;8.40;99.90;;;;;;1949913;71;20208;-73
2021/10/25 01:19:19;;;;;;;;;;;8.50;99.90;;;;;;1942982;71;20193;-73
2021/10/25 01:21:46;;;;;;;;;;;8.50;99.90;;;;;;1952057;71;20125;-71
2021/10/25 01:24:13;;;;;;;;;;;8.30;99.90;;;;;;1946886;71;20185;-72
2021/10/25 01:26:39;;;;;;;;;;;8.40;99.90;;;;;;1946156;71;20363;-72
2021/10/25 01:29:06;;;;;;;;;;;8.40;99.90;;;;;;1943631;71;20575;-71
2021/10/25 01:31:33;;;;;;;;;;;8.40;99.90;;;;;;1946226;71;20239;-72
2021/10/25 01:34:01;;;;;;;;;;;8.40;99.90;;;;;;1947738;71;20118;-72
2021/10/25 01:36:27;;;;;;;;;;;8.50;99.90;;;;;;1944459;71;20207;-72
2021/10/25 01:38:54;;;;;;;;;;;8.40;99.90;;;;;;1945144;71;20113;-71
2021/10/25 01:41:22;;;;;;;;;;;8.40;99.90;;;;;;1942774;71;20176;-72
2021/10/25 01:43:49;;;;;;;;;;;8.40;99.90;;;;;;1941305;71;20242;-72
2021/10/25 01:46:16;;;;;;;;;;;8.40;99.90;;;;;;1943508;71;20179;-72
2021/10/25 01:48:42;;;;;;;;;;;8.40;99.90;;;;;;1942798;71;20221;-71
2021/10/25 01:51:10;;;;;;;;;;;8.30;99.90;;;;;;1949652;71;20593;-72
2021/10/25 01:53:37;;;;;;;;;;;8.30;99.90;;;;;;1953832;71;20212;-71
2021/10/25 01:56:05;;;;;;;;;;;8.30;99.90;;;;;;1951538;71;20195;-73
2021/10/25 01:58:31;;;;;;;;;;;8.30;99.90;;;;;;1951199;71;20203;-72
2021/10/25 02:00:58;;;;;;;;;;;8.20;99.90;;;;;;1952373;71;20184;-73
2021/10/25 02:03:25;;;;;;;;;;;8.20;99.90;;;;;;1946342;71;20287;-72
2021/10/25 02:05:52;;;;;;;;;;;8.20;99.90;;;;;;1949641;71;20188;-72
2021/10/25 02:08:22;;;;;;;;;;;8.20;99.90;;;;;;1944478;71;20193;-72
2021/10/25 02:10:48;;;;;;;;;;;8.10;99.90;;;;;;1945282;71;20245;-73
2021/10/25 02:13:16;;;;;;;;;;;8.10;99.90;;;;;;1948064;71;20344;-72
2021/10/25 02:15:46;;;;;;;;;;;8.10;99.90;;;;;;1956951;71;20144;-72
2021/10/25 02:18:13;;;;;;;;;;;8.20;99.90;;;;;;1955607;71;20120;-73
2021/10/25 02:20:41;;;;;;;;;;;8.20;99.90;;;;;;1948644;71;20200;-73
2021/10/25 02:23:08;;;;;;;;;;;8.10;99.90;;;;;;1953470;71;20207;-72
2021/10/25 02:25:35;;;;;;;;;;;8.10;99.90;;;;;;1948313;71;20210;-71
2021/10/25 02:28:03;;;;;;;;;;;8.10;99.90;;;;;;1954425;71;20170;-72
2021/10/25 02:30:30;;;;;;;;;;;8.10;99.90;;;;;;1961388;71;20204;-72
2021/10/25 02:32:58;;;;;;;;;;;8.00;99.90;;;;;;1953469;71;20216;-72
2021/10/25 02:35:24;;;;;;;;;;;8.00;99.90;;;;;;1948883;71;20192;-70
2021/10/25 02:37:54;;;;;;;;;;;8.00;99.90;;;;;;1947366;71;20193;-73
2021/10/25 02:40:20;;;;;;;;;;;8.00;99.90;;;;;;1947946;71;20156;-72
2021/10/25 02:42:46;;;;;;;;;;;8.00;99.90;;;;;;1949528;71;20481;-72
2021/10/25 02:45:13;;;;;;;;;;;7.90;99.90;;;;;;1949352;71;20217;-71
2021/10/25 02:47:40;;;;;;;;;;;8.00;99.90;;;;;;1956647;73;20190;-72
2021/10/25 02:50:07;;;;;;;;;;;8.00;99.90;;;;;;1918118;71;20181;-71
2021/10/25 02:52:34;;;;;;;;;;;8.00;99.90;;;;;;1879418;74;20566;-71
2021/10/25 02:55:01;;;;;;;;;;;8.00;99.90;;;;;;1883637;74;20177;-71
2021/10/25 02:57:28;;;;;;;;;;;7.90;99.90;;;;;;1876264;74;20163;-71
2021/10/25 02:59:54;;;;;;;;;;;8.00;99.90;;;;;;1881047;74;20220;-71
2021/10/25 03:02:21;;;;;;;;;;;7.90;99.90;;;;;;1872162;74;20230;-70
2021/10/25 03:04:48;;;;;;;;;;;8.00;99.90;;;;;;1874747;74;20192;-69
2021/10/25 03:07:15;;;;;;;;;;;8.10;99.90;;;;;;1869427;74;20716;-71
2021/10/25 03:09:42;;;;;;;;;;;8.10;99.90;;;;;;1872878;74;20219;-69
2021/10/25 03:12:09;;;;;;;;;;;8.00;99.90;;;;;;1879719;74;20181;-71
2021/10/25 03:14:36;;;;;;;;;;;8.00;99.90;;;;;;1841821;76;20213;-71
2021/10/25 03:17:03;;;;;;;;;;;8.00;99.90;;;;;;1862139;76;20185;-71
2021/10/25 03:19:30;;;;;;;;;;;8.00;99.90;;;;;;1855566;75;20215;-68
2021/10/25 03:21:57;;;;;;;;;;;8.10;99.90;;;;;;1863723;75;20196;-69
2021/10/25 03:24:24;;;;;;;;;;;8.00;99.90;;;;;;1862759;75;20255;-69
2021/10/25 03:26:51;;;;;;;;;;;8.00;99.90;;;;;;1858904;75;20519;-70
2021/10/25 03:29:17;;;;;;;;;;;8.10;99.90;;;;;;1861264;75;20168;-71
2021/10/25 03:31:44;;;;;;;;;;;8.00;99.90;;;;;;1861685;75;20214;-71
2021/10/25 03:34:11;;;;;;;;;;;8.00;99.90;;;;;;1860137;75;20504;-71
2021/10/25 03:36:39;;;;;;;;;;;8.00;99.90;;;;;;1864315;75;20224;-71
2021/10/25 03:39:07;;;;;;;;;;;8.00;99.90;;;;;;1863318;75;20117;-71
2021/10/25 03:41:38;;;;;;;;;;;8.00;99.90;;;;;;1860343;75;20187;-71
2021/10/25 03:44:10;;;;;;;;;;;8.00;99.90;;;;;;1860816;75;20517;-70
2021/10/25 03:46:41;;;;;;;;;;;8.00;99.90;;;;;;1859646;75;20165;-70
2021/10/25 03:49:17;;;;;;;;;;;8.00;99.90;;;;;;1855970;75;20436;-70
2021/10/25 03:51:32;;;;;;;;;;;8.00;99.90;;;;;;1852768;75;20170;-69
2021/10/25 03:54:20;;;;;;;;;;;8.00;99.90;;;;;;1866290;75;20127;-70
2021/10/25 04:26:53;;;;;;;;;;;8.00;99.90;;;;;;1870762;74;20215;-68
2021/10/25 04:29:19;;;;;;;;;;;7.90;99.90;;;;;;1867497;74;20125;-70
2021/10/25 04:31:44;;;;;;;;;;;7.90;99.90;;;;;;1872147;74;20122;-69
2021/10/25 04:34:10;;;;;;;;;;;7.90;99.90;;;;;;1873662;74;20177;-70
2021/10/25 04:36:38;;;;;;;;;;;7.90;99.90;;;;;;1870966;74;20220;-70
2021/10/25 04:39:09;;;;;;;;;;;7.90;99.90;;;;;;1871372;74;20255;-70
2021/10/25 04:41:33;;;;;;;;;;;7.90;99.90;;;;;;1869644;74;20181;-70
2021/10/25 04:44:00;;;;;;;;;;;7.90;99.90;;;;;;1872361;74;20247;-70
2021/10/25 04:46:26;;;;;;;;;;;7.90;99.90;;;;;;1873522;74;20334;-70
2021/10/25 04:48:53;;;;;;;;;;;7.90;99.90;;;;;;1867734;74;20436;-71
2021/10/25 04:51:20;;;;;;;;;;;7.90;99.90;;;;;;1873957;74;20426;-70
2021/10/25 04:53:47;;;;;;;;;;;7.80;99.90;;;;;;1876337;74;20173;-70
2021/10/25 04:56:13;;;;;;;;;;;7.80;99.90;;;;;;1872419;76;20163;-70
2021/10/25 04:58:40;;;;;;;;;;;7.90;99.90;;;;;;1875719;74;20134;-71
2021/10/25 05:01:08;;;;;;;;;;;7.80;99.90;;;;;;1875711;74;20187;-70
2021/10/25 05:03:36;;;;;;;;;;;7.90;99.90;;;;;;1872631;74;20165;-70
2021/10/25 05:06:03;;;;;;;;;;;7.90;99.90;;;;;;1864577;75;20694;-70
2021/10/25 05:08:31;;;;;;;;;;;7.90;99.90;;;;;;1861815;75;20464;-71
2021/10/25 05:10:57;;;;;;;;;;;7.90;99.90;;;;;;1862901;75;20524;-71
2021/10/25 05:13:24;;;;;;;;;;;7.90;99.90;;;;;;1854462;75;20186;-70
2021/10/25 05:15:51;;;;;;;;;;;7.90;99.90;;;;;;1859371;75;20538;-70
2021/10/25 05:18:18;;;;;;;;;;;7.90;99.90;;;;;;1861140;75;20220;-70
2021/10/25 05:20:45;;;;;;;;;;;7.80;99.90;;;;;;1853034;75;20111;-70
2021/10/25 05:23:12;;;;;;;;;;;7.80;99.90;;;;;;1856424;75;20181;-70
2021/10/25 05:25:40;;;;;;;;;;;7.80;99.90;;;;;;1855942;75;20164;-71
2021/10/25 05:28:07;;;;;;;;;;;7.80;99.90;;;;;;1858381;75;20466;-70
2021/10/25 05:30:34;;;;;;;;;;;7.70;99.90;;;;;;1857179;75;20172;-71
2021/10/25 05:33:01;;;;;;;;;;;7.70;99.90;;;;;;1855666;75;20450;-70
2021/10/25 05:35:28;;;;;;;;;;;7.70;99.90;;;;;;1857770;75;20528;-70
2021/10/25 05:37:56;;;;;;;;;;;7.70;99.90;;;;;;1854267;75;20134;-70
2021/10/25 05:40:23;;;;;;;;;;;7.70;99.90;;;;;;1856254;75;20201;-70
2021/10/25 05:42:51;;;;;;;;;;;7.70;99.90;;;;;;1865800;75;20167;-71
2021/10/25 05:45:18;;;;;;;;;;;7.70;99.90;;;;;;1861258;75;20544;-71
2021/10/25 05:47:47;;;;;;;;;;;7.70;99.90;;;;;;1857113;75;20532;-71
2021/10/25 05:50:13;;;;;;;;;;;7.70;99.90;;;;;;1855948;75;20139;-71
2021/10/25 05:52:40;;;;;;;;;;;7.70;99.90;;;;;;1862013;75;20465;-72
2021/10/25 05:55:08;;;;;;;;;;;7.70;99.90;;;;;;1860572;75;20194;-72
2021/10/25 05:57:35;;;;;;;;;;;7.70;99.90;;;;;;1856734;75;20495;-71
2021/10/25 06:00:04;;;;;;;;;;;7.70;99.90;;;;;;1860977;75;20210;-71
2021/10/25 06:02:35;;;;;;;;;;;7.70;99.90;;;;;;1854803;75;20142;-71
2021/10/25 06:05:01;;;;;;;;;;;7.70;99.90;;;;;;1860733;75;20173;-70
2021/10/25 06:07:28;;;;;;;;;;;7.60;99.90;;;;;;1862735;75;20167;-70
2021/10/25 06:09:55;;;;;;;;;;;7.60;99.90;;;;;;1858801;75;20207;-71
2021/10/25 06:12:22;;;;;;;;;;;7.70;99.90;;;;;;1863885;75;20213;-70
2021/10/25 06:14:51;;;;;;;;;;;7.70;99.90;;;;;;1857136;75;20227;-72
2021/10/25 06:19:51;;;;;;;;;;;7.50;99.90;;;;;;1864131;75;20191;-71
2021/10/25 06:22:21;;;;;;;;;;;7.50;99.90;;;;;;1859925;75;20162;-71
2021/10/25 06:24:48;;;;;;;;;;;7.50;99.90;;;;;;1858966;75;20166;-71
2021/10/25 06:27:16;;;;;;;;;;;7.50;99.90;;;;;;1860942;75;20185;-71
2021/10/25 06:29:42;;;;;;;;;;;7.50;99.90;;;;;;1862454;75;20168;-71
2021/10/25 06:32:09;;;;;;;;;;;7.50;99.90;;;;;;1859569;75;20516;-70
2021/10/25 06:34:46;;;;;;;;;;;7.50;99.90;;;;;;1864938;75;20695;-71
2021/10/25 06:37:08;;;;;;;;;;;7.60;99.90;;;;;;1861330;75;20242;-71
2021/10/25 06:39:43;;;;;;;;;;;7.50;99.90;;;;;;1857626;75;20205;-71
2021/10/25 06:42:09;;;;;;;;;;;7.50;99.90;;;;;;1858079;75;20254;-71
2021/10/25 06:44:49;;;;;;;;;;;7.50;99.90;;;;;;1860156;75;20174;-70
2021/10/25 06:47:05;;;;;;;;;;;7.60;99.90;;;;;;1852042;75;20494;-71
2021/10/25 06:49:32;;;;;;;;;;;7.60;99.90;;;;;;1865224;75;20204;-70
2021/10/25 06:51:59;;;;;;;;;;;7.50;99.90;;;;;;1860812;75;20489;-71
2021/10/25 06:54:26;;;;;;;;;;;7.50;99.90;;;;;;1862659;76;20195;-72
2021/10/25 06:56:53;;;;;;;;;;;7.60;99.90;;;;;;1871585;76;20183;-72
2021/10/25 06:59:20;;;;;;;;;;;7.60;99.90;;;;;;1864705;75;20214;-72
2021/10/25 07:01:47;;;;;;;;;;;7.60;99.90;;;;;;1867430;76;20155;-71
2021/10/25 07:04:14;;;;;;;;;;;7.60;99.90;;;;;;1861296;76;20181;-70
2021/10/25 07:06:41;;;;;;;;;;;7.60;99.90;;;;;;1867485;76;20185;-71
2021/10/25 07:09:09;;;;;;;;;;;7.60;99.90;;;;;;1865274;76;20177;-71
2021/10/25 07:11:38;;;;;;;;;;;7.60;99.90;;;;;;1859908;75;20190;-71
2021/10/25 07:14:06;;;;;;;;;;;7.70;99.90;;;;;;1862341;76;20484;-72
2021/10/25 07:16:39;;;;;;;;;;;7.70;99.90;;;;;;1866875;76;20193;-72
2021/10/25 07:21:54;;;;;;;;;;;7.70;99.90;;;;;;1865842;75;20203;-72
2021/10/25 08:00:17;;;;;;;;;;;8.20;99.90;;;;;;1866728;75;20221;-69
2021/10/25 08:10:11;;;;;;;;;;;8.50;99.90;;;;;;1861756;75;20219;-71
2021/10/25 08:12:34;;;;;;;;;;;8.50;99.90;;;;;;1856605;76;20252;-71
2021/10/25 08:15:08;;;;;;;;;;;8.50;99.90;;;;;;1864099;76;20128;-71
2021/10/25 08:17:45;;;;;;;;;;;8.50;99.90;;;;;;1861881;75;20154;-71
2021/10/25 08:20:08;;;;;;;;;;;8.60;99.90;;;;;;1859646;76;20202;-70
2021/10/25 08:22:37;;;;;;;;;;;8.60;99.90;;;;;;1862694;76;20191;-70
2021/10/25 08:25:03;;;;;;;;;;;8.60;99.90;;;;;;1863518;76;20418;-73
2021/10/25 08:27:30;;;;;;;;;;;8.70;99.90;;;;;;1867826;76;20182;-70
2021/10/25 08:29:57;;;;;;;;;;;8.70;99.90;;;;;;1863339;76;20133;-70
2021/10/25 08:40:39;;;;;;;;;;;8.80;99.90;;;;;;1863774;75;20234;-71
2021/10/25 08:43:07;;;;;;;;;;;8.80;99.90;;;;;;1860181;76;20174;-71
2021/10/25 08:45:34;;;;;;;;;;;8.90;99.90;;;;;;1866128;76;20175;-72
2021/10/25 08:48:03;;;;;;;;;;;9.00;99.90;;;;;;1867691;76;20130;-71
2021/10/25 08:50:33;;;;;;;;;;;9.10;99.90;;;;;;1863576;76;20131;-71
2021/10/25 08:52:59;;;;;;;;;;;9.10;99.90;;;;;;1866464;76;20462;-71
2021/10/25 08:55:26;;;;;;;;;;;9.30;99.90;;;;;;1861105;75;20183;-72
2021/10/25 08:57:54;;;;;;;;;;;9.30;99.90;;;;;;1867037;76;20179;-72
2021/10/25 09:00:22;;;;;;;;;;;9.40;99.90;;;;;;1861070;75;20209;-71
2021/10/25 09:02:59;;;;;;;;;;;9.50;99.90;;;;;;1865074;76;20257;-72
2021/10/25 09:05:26;;;;;;;;;;;9.60;99.90;;;;;;1863536;76;20195;-72
2021/10/25 09:07:54;;;;;;;;;;;9.60;99.90;;;;;;1868127;76;20175;-71
2021/10/25 09:10:25;;;;;;;;;;;9.60;99.90;;;;;;1864584;75;20172;-71
2021/10/25 09:12:53;;;;;;;;;;;9.70;99.90;;;;;;1868881;76;20176;-71
2021/10/25 09:15:20;;;;;;;;;;;9.70;99.90;;;;;;1868323;76;20121;-71
2021/10/25 09:17:47;;;;;;;;;;;9.70;99.90;;;;;;1864876;76;20181;-71
2021/10/25 09:20:16;;;;;;;;;;;9.70;99.90;;;;;;1865118;75;20113;-71
2021/10/25 09:22:43;;;;;;;;;;;9.70;99.90;;;;;;1868146;76;20482;-71
2021/10/25 09:25:10;;;;;;;;;;;9.70;99.90;;;;;;1864960;76;20181;-72
2021/10/25 09:27:42;;;;;;;;;;;9.70;99.90;;;;;;1865909;76;20215;-72
2021/10/25 09:30:17;;;;;;;;;;;9.80;99.90;;;;;;1866560;75;20176;-72
2021/10/25 09:32:44;;;;;;;;;;;9.70;99.90;;;;;;1864912;76;20480;-72
2021/10/25 09:35:22;;;;;;;;;;;9.70;99.90;;;;;;1863623;76;20238;-72
2021/10/25 09:38:05;;;;;;;;;;;9.80;99.90;;;;;;1860691;75;20217;-71
2021/10/25 09:40:24;;;;;;;;;;;9.80;99.90;;;;;;1858059;75;20218;-72
2021/10/25 09:43:02;;;;;;;;;;;9.70;99.90;;;;;;1885224;74;20175;-72
2021/10/25 09:45:31;;;;;;;;;;;9.80;99.90;;;;;;1880556;74;20179;-72
2021/10/25 09:50:44;;;;;;;;;;;10.00;99.90;;;;;;1887003;74;20143;-71
2021/10/25 09:53:12;;;;;;;;;;;9.90;99.90;;;;;;1912637;74;20181;-71
2021/10/25 09:55:43;;;;;;;;;;;10.00;99.90;;;;;;1914080;73;20210;-70
2021/10/25 09:58:25;;;;;;;;;;;9.90;99.90;;;;;;1913053;73;20190;-71
2021/10/25 10:00:46;;;;;;;;;;;9.90;99.90;;;;;;1911265;73;20169;-71
2021/10/25 10:03:15;;;;;;;;;;;10.00;99.90;;;;;;1912987;74;20128;-71
2021/10/25 10:05:43;;;;;;;;;;;10.10;99.90;;;;;;1913174;73;20150;-71
2021/10/25 10:08:11;;;;;;;;;;;10.00;99.90;;;;;;1913857;74;20207;-71
2021/10/25 10:10:39;;;;;;;;;;;10.00;99.90;;;;;;1916944;73;20461;-71
2021/10/25 10:13:06;;;;;;;;;;;10.00;99.90;;;;;;1913149;73;20407;-71
2021/10/25 10:15:38;;;;;;;;;;;10.10;99.90;;;;;;1918293;73;20544;-71
2021/10/25 10:18:06;;;;;;;;;;;10.10;99.90;;;;;;1915729;73;20217;-71
2021/10/25 10:20:34;;;;;;;;;;;10.10;99.90;;;;;;1913478;73;20578;-72
2021/10/25 10:23:03;;;;;;;;;;;10.20;99.90;;;;;;1916236;74;20133;-70
2021/10/25 10:25:31;;;;;;;;;;;10.30;99.90;;;;;;1919332;73;20216;-71
2021/10/25 10:28:02;;;;;;;;;;;10.30;99.90;;;;;;1915203;73;20396;-71
2021/10/25 10:30:30;;;;;;;;;;;10.30;99.90;;;;;;1882687;74;20185;-72
2021/10/25 10:33:01;;;;;;;;;;;10.40;99.90;;;;;;1849531;77;20539;-71
2021/10/25 10:35:29;;;;;;;;;;;10.40;99.90;;;;;;1884363;75;20563;-71
2021/10/25 10:38:00;;;;;;;;;;;10.40;99.90;;;;;;1845106;76;20432;-71
2021/10/25 10:40:29;;;;;;;;;;;10.40;99.90;;;;;;1888496;74;20172;-70
2021/10/25 10:42:56;;;;;;;;;;;10.40;99.90;;;;;;1844077;76;20574;-71
2021/10/25 10:45:23;;;;;;;;;;;10.40;99.90;;;;;;1877974;74;20177;-71
2021/10/25 10:47:58;;;;;;;;;;;10.40;99.90;;;;;;1877345;75;20512;-71
2021/10/25 10:50:38;;;;;;;;;;;10.50;99.90;;;;;;1877498;76;20174;-71
2021/10/25 10:52:58;;;;;;;;;;;10.50;99.90;;;;;;1876586;75;20465;-71
2021/10/25 10:55:27;;;;;;;;;;;10.50;99.90;;;;;;1879731;75;20558;-71
2021/10/25 11:00:25;;;;;;;;;;;10.50;99.90;;;;;;1878519;74;20169;-71
2021/10/25 11:02:56;;;;;;;;;;;10.50;99.90;;;;;;1879849;75;20116;-70
2021/10/25 11:05:30;;;;;;;;;;;10.50;99.90;;;;;;1883670;74;20259;-72
2021/10/25 11:08:02;;;;;;;;;;;10.50;99.90;;;;;;1879794;76;20259;-71
2021/10/25 11:10:31;;;;;;;;;;;10.50;99.90;;;;;;1870222;74;20201;-70
2021/10/25 11:13:02;;;;;;;;;;;10.50;99.90;;;;;;1883038;74;20823;-70
2021/10/25 11:15:34;;;;;;;;;;;10.60;99.90;;;;;;1877808;75;20206;-70
2021/10/25 11:18:01;;;;;;;;;;;10.60;99.90;;;;;;1885445;74;20166;-71
2021/10/25 11:20:28;;;;;;;;;;;10.70;99.90;;;;;;1870417;74;20238;-70
2021/10/25 11:22:56;;;;;;;;;;;10.70;99.90;;;;;;1870528;74;20122;-70
2021/10/25 11:25:23;;;;;;;;;;;10.80;99.90;;;;;;1874682;76;20126;-70
2021/10/25 11:27:51;;;;;;;;;;;10.80;99.90;;;;;;1879126;75;20180;-70
2021/10/25 11:30:19;;;;;;;;;;;10.80;99.90;;;;;;1879037;74;20240;-71
2021/10/25 11:32:46;;;;;;;;;;;10.80;99.90;;;;;;1880950;75;20159;-71
2021/10/25 11:35:14;;;;;;;;;;;10.90;99.90;;;;;;1878282;74;20170;-72
2021/10/25 11:37:52;;;;;;;;;;;10.90;99.90;;;;;;1880727;74;20171;-71
2021/10/25 11:40:12;;;;;;;;;;;10.90;99.90;;;;;;1870577;74;20200;-70
2021/10/25 11:42:40;;;;;;;;;;;11.00;99.90;;;;;;1877643;76;20156;-70
2021/10/25 11:45:17;;;;;;;;;;;11.10;99.90;;;;;;1879069;76;20189;-70
2021/10/25 11:47:45;;;;;;;;;;;11.10;99.90;;;;;;1874036;74;20189;-71
2021/10/25 11:50:14;;;;;;;;;;;11.10;99.90;;;;;;1873691;74;20155;-71
2021/10/25 11:52:42;;;;;;;;;;;11.10;99.90;;;;;;1879622;74;20199;-70
2021/10/25 11:55:11;;;;;;;;;;;11.10;99.90;;;;;;1882987;74;20192;-71
2021/10/25 11:57:39;;;;;;;;;;;11.10;99.90;;;;;;1877250;76;20136;-71
2021/10/25 12:00:10;;;;;;;;;;;11.20;99.90;;;;;;1882312;74;20124;-71
2021/10/25 12:02:37;;;;;;;;;;;11.20;99.90;;;;;;1870774;76;20188;-71
2021/10/25 12:05:05;;;;;;;;;;;11.30;99.90;;;;;;1871318;74;20126;-71
2021/10/25 12:07:32;;;;;;;;;;;11.30;99.90;;;;;;1878964;75;20127;-71
2021/10/25 12:10:03;;;;;;;;;;;11.40;99.90;;;;;;1874961;74;20165;-70
2021/10/25 12:12:30;;;;;;;;;;;11.50;99.90;;;;;;1876475;76;20169;-71
2021/10/25 12:15:02;;;;;;;;;;;11.50;99.90;;;;;;1876174;76;20460;-71
2021/10/25 12:17:27;;;;;;;;;;;11.60;99.90;;;;;;1874251;76;20247;-71
2021/10/25 12:19:54;;;;;;;;;;;11.60;99.90;;;;;;1873782;76;20392;-73
2021/10/25 12:22:21;;;;;;;;;;;11.70;99.90;;;;;;1877940;75;20489;-70
2021/10/25 12:24:49;;;;;;;;;;;11.70;99.90;;;;;;1876310;76;20448;-72
2021/10/25 12:27:21;;;;;;;;;;;11.70;99.90;;;;;;1876234;76;20490;-73
2021/10/25 12:29:50;;;;;;;;;;;11.70;99.90;;;;;;1875167;74;20197;-73
2021/10/25 12:32:16;;;;;;;;;;;11.70;99.90;;;;;;1867373;74;20244;-73
2021/10/25 12:34:48;;;;;;;;;;;11.70;99.90;;;;;;1873964;76;20206;-71
2021/10/25 12:37:28;;;;;;;;;;;11.80;99.90;;;;;;1878577;75;20156;-71
2021/10/25 12:39:56;;;;;;;;;;;11.80;99.90;;;;;;1881330;76;20178;-73
2021/10/25 12:42:24;;;;;;;;;;;11.80;99.90;;;;;;1839538;76;20110;-73
2021/10/25 12:44:54;;;;;;;;;;;11.80;99.90;;;;;;1875118;76;20212;-73
2021/10/25 12:47:21;;;;;;;;;;;11.90;99.90;;;;;;1876809;76;20253;-72
2021/10/25 12:49:53;;;;;;;;;;;11.90;99.90;;;;;;1881565;75;20244;-72
2021/10/25 12:52:20;;;;;;;;;;;11.90;99.90;;;;;;1878554;74;20237;-72
2021/10/25 12:54:47;;;;;;;;;;;11.90;99.90;;;;;;1875348;76;20128;-71
2021/10/25 12:57:18;;;;;;;;;;;11.90;99.90;;;;;;1878479;74;20226;-72
2021/10/25 12:59:46;;;;;;;;;;;11.90;99.90;;;;;;1878270;74;20408;-72
2021/10/25 13:02:15;;;;;;;;;;;11.90;99.90;;;;;;1875767;76;20165;-72
2021/10/25 13:04:41;;;;;;;;;;;11.90;99.90;;;;;;1874566;76;20143;-72
2021/10/25 13:07:11;;;;;;;;;;;11.90;99.90;;;;;;1880155;74;20447;-72
2021/10/25 13:09:48;;;;;;;;;;;12.00;99.90;;;;;;1883386;74;20180;-70
2021/10/25 13:12:14;;;;;;;;;;;11.90;99.90;;;;;;1876285;76;20165;-70
2021/10/25 13:14:41;;;;;;;;;;;12.00;99.90;;;;;;1875344;75;20380;-71
2021/10/25 13:17:09;;;;;;;;;;;12.00;99.90;;;;;;1884787;75;20457;-72
2021/10/25 13:19:35;;;;;;;;;;;12.00;99.90;;;;;;1875883;74;20199;-72
2021/10/25 13:22:02;;;;;;;;;;;12.00;99.90;;;;;;1881521;75;20672;-72
2021/10/25 13:24:29;;;;;;;;;;;12.00;99.90;;;;;;1881878;74;20161;-71
2021/10/25 13:26:56;;;;;;;;;;;12.00;99.90;;;;;;1877951;76;20181;-72
2021/10/25 13:29:23;;;;;;;;;;;12.00;99.90;;;;;;1877098;76;20203;-71
2021/10/25 13:31:49;;;;;;;;;;;12.00;99.90;;;;;;1885213;76;20206;-71
2021/10/25 13:34:18;;;;;;;;;;;12.00;99.90;;;;;;1878168;76;20157;-71
2021/10/25 13:36:45;;;;;;;;;;;12.00;99.90;;;;;;1878521;75;20174;-71
2021/10/25 13:39:13;;;;;;;;;;;12.10;99.90;;;;;;1882276;75;20435;-72
2021/10/25 13:41:40;;;;;;;;;;;12.10;99.90;;;;;;1877900;76;20179;-71
2021/10/25 13:44:07;;;;;;;;;;;12.10;99.90;;;;;;1878329;76;20177;-71
2021/10/25 13:46:34;;;;;;;;;;;12.10;99.90;;;;;;1875032;76;20498;-72
2021/10/25 13:49:02;;;;;;;;;;;12.10;99.90;;;;;;1878303;75;20167;-71
2021/10/25 13:51:29;;;;;;;;;;;12.20;99.90;;;;;;1872283;74;20220;-71
2021/10/25 13:53:56;;;;;;;;;;;12.20;99.90;;;;;;1881984;75;20376;-71
2021/10/25 13:56:23;;;;;;;;;;;12.20;99.90;;;;;;1885007;74;20173;-72
2021/10/25 13:58:50;;;;;;;;;;;12.10;99.90;;;;;;1877742;76;20435;-73
2021/10/25 14:01:16;;;;;;;;;;;12.20;99.90;;;;;;1877374;74;20241;-71
2021/10/25 14:03:46;;;;;;;;;;;12.20;99.90;;;;;;1875524;75;20458;-72
2021/10/25 14:06:14;;;;;;;;;;;12.20;99.90;;;;;;1885644;75;20179;-72
2021/10/25 14:08:42;;;;;;;;;;;12.30;99.90;;;;;;1880705;75;21131;-72
2021/10/25 14:11:09;;;;;;;;;;;12.30;99.90;;;;;;1880972;74;20189;-71
2021/10/25 14:13:43;;;;;;;;;;;12.30;99.90;;;;;;1858771;76;20535;-71
2021/10/25 14:16:10;;;;;;;;;;;12.40;99.90;;;;;;1846193;76;20185;-71
2021/10/25 14:18:37;;;;;;;;;;;12.40;99.90;;;;;;1883993;74;20436;-72
2021/10/25 14:21:04;;;;;;;;;;;12.40;99.90;;;;;;1882990;74;20521;-72
2021/10/25 14:23:32;;;;;;;;;;;12.40;99.90;;;;;;1891022;75;20170;-72
2021/10/25 14:25:58;;;;;;;;;;;12.50;99.90;;;;;;1882337;76;20133;-72
2021/10/25 14:28:29;;;;;;;;;;;12.40;99.90;;;;;;1884572;74;20158;-71
2021/10/25 14:30:54;;;;;;;;;;;12.50;99.90;;;;;;1891896;74;20171;-71
2021/10/25 14:33:21;;;;;;;;;;;12.50;99.90;;;;;;1883476;75;20116;-72
2021/10/25 14:35:47;;;;;;;;;;;12.50;99.90;;;;;;1887026;74;20226;-71
2021/10/25 14:38:29;;;;;;;;;;;12.50;99.90;;;;;;1885036;75;20165;-71
2021/10/25 14:40:59;;;;;;;;;;;12.50;99.90;;;;;;1876859;74;20209;-71
2021/10/25 14:43:17;;;;;;;;;;;12.50;99.90;;;;;;1875297;76;20202;-71
2021/10/25 14:45:51;;;;;;;;;;;12.50;99.90;;;;;;1880259;74;20428;-71
2021/10/25 14:48:27;;;;;;;;;;;12.60;99.90;;;;;;1878577;76;20224;-71
2021/10/25 14:53:43;;;;;;;;;;;12.60;99.90;;;;;;1890580;75;20181;-71
2021/10/25 14:56:06;;;;;;;;;;;12.60;99.90;;;;;;1887525;74;20194;-71
2021/10/25 14:58:34;;;;;;;;;;;12.60;99.90;;;;;;1885939;75;20159;-70
2021/10/25 15:01:02;;;;;;;;;;;12.60;99.90;;;;;;1881822;74;20493;-71
2021/10/25 15:03:29;;;;;;;;;;;12.50;99.90;;;;;;1890912;74;20543;-71
2021/10/25 15:05:58;;;;;;;;;;;12.60;99.90;;;;;;1893330;75;20163;-71
2021/10/25 15:08:25;;;;;;;;;;;12.60;99.90;;;;;;1884319;76;20181;-71
2021/10/25 15:10:53;;;;;;;;;;;12.60;99.90;;;;;;1882084;74;20118;-71
2021/10/25 15:13:20;;;;;;;;;;;12.60;99.90;;;;;;1885005;75;20186;-71
2021/10/25 15:15:46;;;;;;;;;;;12.60;99.90;;;;;;1885407;75;20129;-70
2021/10/25 15:18:13;;;;;;;;;;;12.50;99.90;;;;;;1886576;74;20196;-71
2021/10/25 15:20:40;;;;;;;;;;;12.60;99.90;;;;;;1884467;74;20411;-71
2021/10/25 15:23:07;;;;;;;;;;;12.60;99.90;;;;;;1894066;74;20192;-71
2021/10/25 15:25:39;;;;;;;;;;;12.60;99.90;;;;;;1890541;74;20188;-71
2021/10/25 15:28:07;;;;;;;;;;;12.60;99.90;;;;;;1874298;73;20167;-76
2021/10/25 15:30:35;;;;;;;;;;;12.60;99.90;;;;;;1865690;76;20256;-75
2021/10/25 15:33:03;;;;;;;;;;;12.60;99.90;;;;;;1852826;75;20126;-75
2021/10/25 15:35:30;;;;;;;;;;;12.60;99.90;;;;;;1842388;76;20292;-75
2021/10/25 15:37:57;;;;;;;;;;;12.60;99.90;;;;;;1884298;76;20112;-75
2021/10/25 15:40:27;;;;;;;;;;;12.70;99.90;;;;;;1870490;76;20200;-75
2021/10/25 15:42:53;;;;;;;;;;;12.60;99.90;;;;;;1872465;76;20492;-75
2021/10/25 15:45:20;;;;;;;;;;;12.60;99.90;;;;;;1871403;76;20280;-74
2021/10/25 15:47:47;;;;;;;;;;;12.60;99.90;;;;;;1872754;76;20111;-75
2021/10/25 15:50:14;;;;;;;;;;;12.60;99.90;;;;;;1878279;74;20225;-74
2021/10/25 15:52:43;;;;;;;;;;;12.60;99.90;;;;;;1872184;76;20173;-74
2021/10/25 15:55:11;;;;;;;;;;;12.60;99.90;;;;;;1870322;76;20157;-74
2021/10/25 15:57:38;;;;;;;;;;;12.60;99.90;;;;;;1869818;76;20227;-74
2021/10/25 16:00:08;;;;;;;;;;;12.60;99.90;;;;;;1871487;76;20112;-74
2021/10/25 16:02:35;;;;;;;;;;;12.60;99.90;;;;;;1869661;76;20454;-75